createdAt,value
2023-06-12T00:01:25.953Z,6.18
2023-06-12T00:03:52.808Z,5.65
2023-06-12T00:06:19.727Z,5.25
2023-06-12T00:08:46.691Z,6.43
2023-06-12T00:11:14.342Z,5.38
2023-06-12T00:13:42.861Z,5.70
2023-06-12T00:16:10.659Z,5.40
2023-06-12T00:18:42.045Z,5.43
2023-06-12T00:21:10.341Z,5.63
2023-06-12T00:23:38.319Z,5.60
2023-06-12T00:26:05.490Z,5.80
2023-06-12T00:28:32.852Z,5.70
2023-06-12T00:31:00.010Z,5.72
2023-06-12T00:33:28.438Z,5.28
2023-06-12T00:35:55.741Z,5.68
2023-06-12T00:38:22.837Z,5.55
2023-06-12T00:40:50.484Z,6.13
2023-06-12T00:43:18.242Z,5.22
2023-06-12T00:45:45.807Z,5.93
2023-06-12T00:48:12.775Z,5.90
2023-06-12T00:50:41.273Z,6.13
2023-06-12T00:53:09.170Z,5.47
2023-06-12T00:55:36.875Z,5.70
2023-06-12T00:58:04.667Z,5.63
2023-06-12T01:00:32.118Z,6.20
2023-06-12T01:03:06.955Z,6.03
2023-06-12T01:05:37.088Z,5.70
2023-06-12T01:08:21.031Z,5.90
2023-06-12T01:10:57.258Z,6.15
2023-06-12T01:13:24.049Z,6.43
2023-06-12T01:15:51.108Z,6.50
2023-06-12T01:18:22.491Z,5.97
2023-06-12T01:20:52.403Z,6.30
2023-06-12T01:23:39.136Z,6.00
2023-06-12T01:26:22.831Z,6.55
2023-06-12T01:29:27.742Z,6.68
2023-06-12T01:32:00.577Z,5.93
2023-06-12T01:34:37.353Z,5.60
2023-06-12T01:37:16.502Z,5.72
2023-06-12T01:39:58.492Z,6.20
2023-06-12T01:42:27.892Z,6.50
2023-06-12T01:44:55.394Z,6.10
2023-06-12T01:47:22.982Z,6.13
2023-06-12T01:49:52.587Z,6.07
2023-06-12T01:52:20.136Z,6.10
2023-06-12T01:54:50.703Z,7.00
2023-06-12T01:57:21.421Z,5.82
2023-06-12T01:59:49.472Z,5.93
2023-06-12T02:02:19.485Z,6.60
2023-06-12T02:04:46.544Z,6.03
2023-06-12T02:07:13.577Z,6.63
2023-06-12T02:09:40.438Z,6.53
2023-06-12T02:12:09.060Z,6.15
2023-06-12T02:14:36.899Z,6.65
2023-06-12T02:17:03.883Z,6.50
2023-06-12T02:19:31.334Z,6.82
2023-06-12T02:21:59.201Z,7.40
2023-06-12T02:24:29.498Z,6.97
2023-06-12T02:26:56.772Z,7.10
2023-06-12T02:29:23.815Z,7.10
2023-06-12T02:31:54.627Z,6.72
2023-06-12T02:34:21.888Z,7.05
2023-06-12T02:36:49.038Z,6.18
2023-06-12T02:39:25.278Z,6.97
2023-06-12T02:41:53.385Z,6.60
2023-06-12T02:44:20.885Z,6.97
2023-06-12T02:46:57.886Z,7.00
2023-06-12T02:49:29.625Z,7.50
2023-06-12T02:51:57.777Z,7.45
2023-06-12T02:54:27.623Z,7.05
2023-06-12T02:56:55.787Z,7.75
2023-06-12T02:59:24.536Z,7.65
2023-06-12T03:01:56.508Z,8.20
2023-06-12T03:04:39.826Z,7.50
2023-06-12T03:07:07.391Z,8.00
2023-06-12T03:09:35.851Z,7.93
2023-06-12T03:12:03.344Z,7.53
2023-06-12T03:14:31.946Z,8.20
2023-06-12T03:16:59.794Z,8.38
2023-06-12T03:19:26.952Z,8.18
2023-06-12T03:21:53.911Z,8.55
2023-06-12T03:24:22.358Z,8.25
2023-06-12T03:26:49.389Z,8.48
2023-06-12T03:29:16.893Z,8.35
2023-06-12T03:31:43.980Z,9.05
2023-06-12T03:34:11.016Z,8.43
2023-06-12T03:36:38.694Z,8.00
2023-06-12T03:39:10.776Z,8.27
2023-06-12T03:41:51.220Z,8.57
2023-06-12T03:44:18.414Z,7.95
2023-06-12T03:46:45.256Z,8.75
2023-06-12T03:49:12.123Z,8.63
2023-06-12T03:51:39.067Z,8.45
2023-06-12T03:54:06.264Z,8.48
2023-06-12T03:56:33.444Z,9.10
2023-06-12T03:59:00.231Z,9.10
2023-06-12T04:01:27.242Z,9.27
2023-06-12T04:03:55.098Z,9.18
2023-06-12T04:06:23.589Z,8.70
2023-06-12T04:08:52.621Z,9.10
2023-06-12T04:11:20.203Z,8.45
2023-06-12T04:13:46.952Z,9.18
2023-06-12T04:16:14.816Z,8.63
2023-06-12T04:18:41.696Z,8.57
2023-06-12T04:21:08.890Z,9.02
2023-06-12T04:23:38.602Z,8.80
2023-06-12T04:26:06.169Z,9.60
2023-06-12T04:28:34.970Z,9.23
2023-06-12T04:31:01.881Z,9.13
2023-06-12T04:33:31.602Z,8.93
2023-06-12T04:36:03.218Z,8.90
2023-06-12T04:38:33.423Z,9.43
2023-06-12T04:41:00.327Z,8.98
2023-06-12T04:43:27.775Z,8.52
2023-06-12T04:45:57.903Z,8.40
2023-06-12T04:48:25.917Z,8.80
2023-06-12T04:50:54.578Z,9.10
2023-06-12T04:53:29.389Z,8.50
2023-06-12T04:55:59.806Z,8.05
2023-06-12T04:58:26.689Z,8.27
2023-06-12T05:00:56.747Z,8.30
2023-06-12T05:03:28.383Z,8.48
2023-06-12T05:05:56.511Z,8.70
2023-06-12T05:08:23.660Z,7.93
2023-06-12T05:10:52.062Z,8.05
2023-06-12T05:13:19.488Z,8.20
2023-06-12T05:15:46.904Z,8.70
2023-06-12T05:18:14.315Z,8.05
2023-06-12T05:20:41.648Z,7.90
2023-06-12T05:23:08.750Z,7.97
2023-06-12T05:25:36.340Z,7.53
2023-06-12T05:28:04.889Z,8.55
2023-06-12T05:30:33.690Z,8.05
2023-06-12T05:33:02.313Z,8.63
2023-06-12T05:35:29.160Z,8.13
2023-06-12T05:37:56.060Z,7.85
2023-06-12T05:40:23.002Z,8.40
2023-06-12T05:42:49.877Z,8.45
2023-06-12T05:45:18.689Z,7.45
2023-06-12T05:47:47.793Z,8.27
2023-06-12T05:50:18.104Z,7.90
2023-06-12T05:52:44.928Z,7.35
2023-06-12T05:55:12.002Z,7.53
2023-06-12T05:57:39.186Z,7.78
2023-06-12T06:00:08.030Z,6.57
2023-06-12T06:02:44.175Z,7.63
2023-06-12T06:05:19.127Z,7.45
2023-06-12T06:07:46.247Z,7.82
2023-06-12T06:10:13.163Z,8.38
2023-06-12T06:12:39.982Z,7.22
2023-06-12T06:15:07.697Z,7.85
2023-06-12T06:17:34.685Z,6.75
2023-06-12T06:20:01.693Z,7.55
2023-06-12T06:22:28.623Z,6.88
2023-06-12T06:24:55.807Z,7.80
2023-06-12T06:27:22.966Z,7.35
2023-06-12T06:29:49.754Z,6.75
2023-06-12T06:32:18.564Z,7.10
2023-06-12T06:34:46.082Z,6.90
2023-06-12T06:37:12.941Z,6.90
2023-06-12T06:39:41.189Z,7.57
2023-06-12T06:42:08.483Z,7.65
2023-06-12T06:44:46.722Z,7.45
2023-06-12T06:47:18.146Z,7.07
2023-06-12T06:49:45.100Z,7.30
2023-06-12T06:52:11.999Z,6.32
2023-06-12T06:54:38.850Z,7.35
2023-06-12T06:57:09.109Z,7.70
2023-06-12T06:59:37.938Z,7.22
2023-06-12T07:02:04.714Z,7.25
2023-06-12T07:04:31.774Z,7.25
2023-06-12T07:06:58.587Z,7.20
2023-06-12T07:09:26.035Z,7.15
2023-06-12T07:11:53.369Z,6.57
2023-06-12T07:14:20.192Z,6.95
2023-06-12T07:16:47.159Z,7.13
2023-06-12T07:19:14.081Z,7.00
2023-06-12T07:21:41.096Z,6.68
2023-06-12T07:24:07.849Z,6.75
2023-06-12T07:26:34.712Z,6.68
2023-06-12T07:29:05.586Z,6.00
2023-06-12T07:31:33.253Z,6.68
2023-06-12T07:34:01.593Z,6.65
2023-06-12T07:36:29.502Z,6.07
2023-06-12T07:38:56.645Z,6.22
2023-06-12T07:41:23.707Z,6.68
2023-06-12T07:43:52.114Z,6.75
2023-06-12T07:46:20.152Z,6.85
2023-06-12T07:48:47.448Z,5.60
2023-06-12T07:51:14.842Z,6.47
2023-06-12T07:53:42.668Z,6.30
2023-06-12T07:56:17.688Z,7.25
2023-06-12T07:58:47.943Z,5.65
2023-06-12T08:01:15.547Z,5.80
2023-06-12T08:03:44.133Z,5.60
2023-06-12T08:06:13.333Z,4.93
2023-06-12T08:08:45.827Z,6.03
2023-06-12T08:11:13.702Z,5.50
2023-06-12T08:13:42.588Z,5.68
2023-06-12T08:16:11.002Z,5.35
2023-06-12T08:18:37.994Z,5.28
2023-06-12T08:21:05.304Z,5.45
2023-06-12T08:23:32.339Z,5.75
2023-06-12T08:25:59.102Z,5.60
2023-06-12T08:28:26.006Z,5.18
2023-06-12T08:30:55.598Z,5.03
2023-06-12T08:33:22.413Z,5.35
2023-06-12T08:35:49.298Z,5.20
2023-06-12T08:38:16.395Z,4.82
2023-06-12T08:40:44.008Z,5.18
2023-06-12T08:43:11.631Z,6.07
2023-06-12T08:45:43.262Z,5.50
2023-06-12T08:48:10.990Z,5.45
2023-06-12T08:50:37.981Z,5.05
2023-06-12T08:53:06.177Z,6.00
2023-06-12T08:55:40.480Z,5.68
2023-06-12T08:58:10.690Z,5.25
2023-06-12T09:00:38.430Z,5.32
2023-06-12T09:03:07.351Z,5.68
2023-06-12T09:05:39.721Z,5.70
2023-06-12T09:08:07.220Z,5.40
2023-06-12T09:10:36.114Z,5.00
2023-06-12T09:13:13.205Z,5.05
2023-06-12T09:15:50.889Z,4.88
2023-06-12T09:18:20.471Z,4.50
2023-06-12T09:20:50.606Z,5.00
2023-06-12T09:23:17.953Z,4.65
2023-06-12T09:26:01.282Z,4.55
2023-06-12T09:28:38.111Z,4.85
2023-06-12T09:31:05.908Z,4.05
2023-06-12T09:33:33.335Z,4.82
2023-06-12T09:36:01.046Z,4.57
2023-06-12T09:38:32.623Z,4.20
2023-06-12T09:41:00.346Z,4.55
2023-06-12T09:43:28.134Z,4.40
2023-06-12T09:45:55.036Z,4.40
2023-06-12T09:48:22.004Z,4.38
2023-06-12T09:50:49.326Z,4.70
2023-06-12T09:53:22.262Z,5.05
2023-06-12T09:55:51.037Z,4.15
2023-06-12T09:58:20.182Z,4.22
2023-06-12T10:00:48.419Z,4.20
2023-06-12T10:03:17.697Z,4.43
2023-06-12T10:05:49.976Z,3.97
2023-06-12T10:08:18.377Z,4.18
2023-06-12T10:10:46.198Z,3.67
2023-06-12T10:13:15.105Z,3.80
2023-06-12T10:15:42.535Z,3.25
2023-06-12T10:18:10.888Z,3.72
2023-06-12T10:20:38.868Z,3.50
2023-06-12T10:23:06.851Z,3.67
2023-06-12T10:25:34.571Z,3.63
2023-06-12T10:28:02.672Z,3.53
2023-06-12T10:30:29.726Z,3.35
2023-06-12T10:33:09.606Z,4.05
2023-06-12T10:35:36.763Z,3.75
2023-06-12T10:38:03.768Z,3.63
2023-06-12T10:40:47.550Z,3.70
2023-06-12T10:43:15.196Z,3.30
2023-06-12T10:45:57.045Z,3.85
2023-06-12T10:48:24.502Z,3.53
2023-06-12T10:50:55.158Z,3.72
2023-06-12T10:53:30.735Z,3.60
2023-06-12T10:56:09.024Z,3.50
2023-06-12T10:58:40.883Z,3.33
2023-06-12T11:01:10.352Z,3.33
2023-06-12T11:03:45.916Z,3.22
2023-06-12T11:06:17.913Z,3.80
2023-06-12T11:08:47.325Z,3.17
2023-06-12T11:11:15.357Z,3.30
2023-06-12T11:13:44.227Z,3.80
2023-06-12T11:16:15.063Z,3.53
2023-06-12T11:18:41.947Z,3.90
2023-06-12T11:21:13.572Z,3.95
2023-06-12T11:23:42.146Z,3.80
2023-06-12T11:26:09.730Z,4.03
2023-06-12T11:28:36.621Z,2.83
2023-06-12T11:31:11.088Z,3.28
2023-06-12T11:33:39.595Z,3.70
2023-06-12T11:36:06.939Z,3.38
2023-06-12T11:41:04.850Z,3.95
2023-06-12T11:43:32.942Z,3.30
2023-06-12T11:46:01.174Z,3.67
2023-06-12T11:50:57.722Z,3.40
2023-06-12T11:53:24.666Z,3.45
2023-06-12T11:58:41.304Z,2.80
2023-06-12T12:01:22.898Z,2.88
2023-06-12T12:03:54.262Z,3.13
2023-06-12T12:06:23.880Z,2.97
2023-06-12T12:08:56.628Z,3.13
2023-06-12T12:11:27.914Z,3.50
2023-06-12T12:14:01.698Z,3.28
2023-06-12T12:16:32.603Z,3.22
2023-06-12T12:18:59.607Z,2.92
2023-06-12T12:21:27.518Z,3.08
2023-06-12T12:23:55.212Z,2.95
2023-06-12T12:26:22.257Z,3.30
2023-06-12T12:28:49.107Z,3.00
2023-06-12T12:31:15.907Z,3.45
2023-06-12T12:33:42.865Z,3.38
2023-06-12T12:36:09.692Z,3.40
2023-06-12T12:38:36.479Z,2.90
2023-06-12T12:41:03.303Z,2.97
2023-06-12T12:43:30.443Z,2.67
2023-06-12T12:45:57.220Z,2.60
2023-06-12T12:48:25.007Z,2.85
2023-06-12T12:51:06.785Z,2.75
2023-06-12T12:53:36.097Z,3.03
2023-06-12T12:56:03.005Z,3.28
2023-06-12T12:58:30.545Z,2.80
2023-06-12T13:00:57.455Z,2.83
2023-06-12T13:03:24.729Z,3.28
2023-06-12T13:05:51.707Z,2.85
2023-06-12T13:08:18.617Z,2.92
2023-06-12T13:10:45.601Z,3.17
2023-06-12T13:13:15.425Z,2.65
2023-06-12T13:15:43.129Z,3.92
2023-06-12T13:18:10.265Z,2.95
2023-06-12T13:20:37.091Z,3.03
2023-06-12T13:23:03.936Z,3.00
2023-06-12T13:25:30.731Z,2.70
2023-06-12T13:27:57.602Z,2.78
2023-06-12T13:30:26.703Z,2.85
2023-06-12T13:32:56.111Z,4.05
2023-06-12T13:35:22.935Z,2.70
2023-06-12T13:37:49.734Z,2.90
2023-06-12T13:40:17.574Z,2.80
2023-06-12T13:42:45.438Z,2.72
2023-06-12T13:45:13.025Z,2.97
2023-06-12T13:47:39.982Z,2.90
2023-06-12T13:50:12.439Z,2.38
2023-06-12T13:52:43.188Z,2.97
2023-06-12T13:55:10.315Z,2.40
2023-06-12T13:57:40.536Z,2.42
2023-06-12T14:00:09.090Z,2.33
2023-06-12T14:02:36.310Z,3.00
2023-06-12T14:05:09.698Z,2.90
2023-06-12T14:07:37.168Z,2.50
2023-06-12T14:10:04.074Z,2.53
2023-06-12T14:12:34.563Z,2.50
2023-06-12T14:15:02.218Z,2.35
2023-06-12T14:17:32.229Z,2.78
2023-06-12T14:20:00.716Z,3.00
2023-06-12T14:22:28.035Z,2.33
2023-06-12T14:24:55.030Z,2.60
2023-06-12T14:27:22.015Z,2.58
2023-06-12T14:29:49.430Z,2.67
2023-06-12T14:32:16.474Z,2.78
2023-06-12T14:34:43.457Z,2.58
2023-06-12T14:37:10.383Z,2.50
2023-06-12T14:39:40.468Z,2.60
2023-06-12T14:42:07.695Z,2.88
2023-06-12T14:44:34.454Z,2.42
2023-06-12T14:47:01.242Z,2.50
2023-06-12T14:49:28.033Z,2.72
2023-06-12T14:51:54.979Z,2.47
2023-06-12T14:54:21.778Z,2.47
2023-06-12T14:56:48.868Z,2.97
2023-06-12T14:59:15.707Z,2.50
2023-06-12T15:01:42.558Z,2.65
2023-06-12T15:04:09.458Z,2.45
2023-06-12T15:06:36.392Z,2.53
2023-06-12T15:09:03.353Z,2.53
2023-06-12T15:11:30.633Z,2.60
2023-06-12T15:13:57.487Z,2.65
2023-06-12T15:16:24.396Z,2.55
2023-06-12T15:18:51.358Z,2.33
2023-06-12T15:21:19.918Z,2.40
2023-06-12T15:23:47.251Z,2.58
2023-06-12T15:26:14.658Z,2.83
2023-06-12T15:28:41.618Z,2.60
2023-06-12T15:31:08.518Z,2.83
2023-06-12T15:33:35.427Z,2.80
2023-06-12T15:36:02.238Z,2.50
2023-06-12T15:38:48.527Z,2.58
2023-06-12T15:41:15.888Z,2.70
2023-06-12T15:43:42.842Z,2.42
2023-06-12T15:46:11.204Z,2.42
2023-06-12T15:48:42.962Z,2.55
2023-06-12T15:51:14.221Z,2.40
2023-06-12T15:53:42.098Z,2.22
2023-06-12T15:56:09.669Z,2.40
2023-06-12T15:58:36.898Z,2.58
2023-06-12T16:01:03.821Z,2.85
2023-06-12T16:03:30.766Z,2.67
2023-06-12T16:05:57.631Z,2.83
2023-06-12T16:08:24.464Z,2.38
2023-06-12T16:10:51.255Z,2.40
2023-06-12T16:13:18.103Z,2.42
2023-06-12T16:15:44.868Z,2.42
2023-06-12T16:18:13.136Z,2.30
2023-06-12T16:20:40.512Z,2.33
2023-06-12T16:23:07.986Z,2.45
2023-06-12T16:25:34.771Z,2.25
2023-06-12T16:28:04.389Z,2.55
2023-06-12T16:30:32.136Z,2.60
2023-06-12T16:33:02.522Z,2.90
2023-06-12T16:35:32.522Z,2.72
2023-06-12T16:37:59.969Z,2.78
2023-06-12T16:40:28.037Z,2.40
2023-06-12T16:42:55.297Z,3.13
2023-06-12T16:45:22.217Z,2.85
2023-06-12T16:47:49.021Z,2.83
2023-06-12T16:50:16.032Z,2.42
2023-06-12T16:52:43.356Z,2.80
2023-06-12T16:55:11.115Z,2.58
2023-06-12T16:57:38.289Z,2.10
2023-06-12T17:00:06.085Z,2.25
2023-06-12T17:02:32.918Z,2.53
2023-06-12T17:04:59.820Z,2.45
2023-06-12T17:07:26.766Z,2.08
2023-06-12T17:09:53.873Z,2.22
2023-06-12T17:12:23.775Z,2.47
2023-06-12T17:14:50.673Z,2.25
2023-06-12T17:17:18.763Z,2.67
2023-06-12T17:19:46.219Z,2.08
2023-06-12T17:22:13.131Z,2.72
2023-06-12T17:24:40.135Z,3.00
2023-06-12T17:27:08.233Z,2.97
2023-06-12T17:29:38.510Z,2.47
2023-06-12T17:32:07.528Z,2.33
2023-06-12T17:34:34.541Z,2.30
2023-06-12T17:37:01.689Z,2.40
2023-06-12T17:39:28.834Z,2.88
2023-06-12T17:41:55.865Z,2.60
2023-06-12T17:44:22.745Z,2.72
2023-06-12T17:46:49.709Z,2.50
2023-06-12T17:49:16.747Z,2.60
2023-06-12T17:51:47.456Z,3.00
2023-06-12T17:54:14.542Z,2.70
2023-06-12T17:56:41.548Z,2.60
2023-06-12T17:59:08.553Z,2.47
2023-06-12T18:01:35.530Z,2.30
2023-06-12T18:04:04.826Z,2.40
2023-06-12T18:06:33.119Z,2.13
2023-06-12T18:08:59.963Z,3.17
2023-06-12T18:11:27.516Z,2.65
2023-06-12T18:13:54.490Z,2.80
2023-06-12T18:16:22.956Z,2.92
2023-06-12T18:18:50.635Z,2.08
2023-06-12T18:21:17.721Z,2.60
2023-06-12T18:23:44.765Z,2.38
2023-06-12T18:26:11.949Z,3.22
2023-06-12T18:28:39.370Z,3.10
2023-06-12T18:31:06.719Z,2.60
2023-06-12T18:33:33.590Z,2.50
2023-06-12T18:36:00.814Z,2.80
2023-06-12T18:38:27.798Z,2.70
2023-06-12T18:40:54.808Z,3.25
2023-06-12T18:43:21.764Z,3.33
2023-06-12T18:45:48.600Z,2.72
2023-06-12T18:48:15.749Z,2.80
2023-06-12T18:50:42.536Z,2.85
2023-06-12T18:53:09.679Z,2.80
2023-06-12T18:55:38.005Z,3.47
2023-06-12T18:58:05.219Z,3.13
2023-06-12T19:00:32.242Z,2.45
2023-06-12T19:03:01.206Z,2.72
2023-06-12T19:05:28.849Z,3.28
2023-06-12T19:07:56.170Z,3.45
2023-06-12T19:10:25.383Z,3.03
2023-06-12T19:12:54.529Z,2.75
2023-06-12T19:15:21.409Z,2.83
2023-06-12T19:17:48.449Z,3.30
2023-06-12T19:20:15.346Z,3.17
2023-06-12T19:22:42.229Z,3.17
2023-06-12T19:25:09.255Z,3.38
2023-06-12T19:27:35.979Z,2.80
2023-06-12T19:30:03.781Z,2.75
2023-06-12T19:32:30.716Z,2.55
2023-06-12T19:34:57.486Z,2.88
2023-06-12T19:37:24.514Z,2.53
2023-06-12T19:39:52.860Z,2.83
2023-06-12T19:42:19.743Z,2.90
2023-06-12T19:44:46.537Z,3.15
2023-06-12T19:47:13.371Z,3.13
2023-06-12T19:49:40.303Z,3.13
2023-06-12T19:52:07.597Z,2.83
2023-06-12T19:54:34.474Z,3.30
2023-06-12T19:57:04.580Z,2.80
2023-06-12T19:59:38.411Z,3.28
2023-06-12T20:02:06.865Z,3.30
2023-06-12T20:04:35.100Z,3.10
2023-06-12T20:07:04.990Z,3.38
2023-06-12T20:09:31.868Z,3.35
2023-06-12T20:11:58.816Z,3.58
2023-06-12T20:14:25.860Z,3.45
2023-06-12T20:16:52.825Z,3.45
2023-06-12T20:19:19.804Z,3.53
2023-06-12T20:21:50.227Z,3.70
2023-06-12T20:24:20.295Z,3.88
2023-06-12T20:26:49.305Z,3.65
2023-06-12T20:29:16.306Z,3.83
2023-06-12T20:31:43.227Z,3.63
2023-06-12T20:34:10.369Z,2.83
2023-06-12T20:36:38.403Z,3.50
2023-06-12T20:39:09.347Z,3.00
2023-06-12T20:41:36.576Z,2.75
2023-06-12T20:44:03.459Z,3.30
2023-06-12T20:46:30.229Z,2.97
2023-06-12T20:48:57.262Z,2.72
2023-06-12T20:51:25.623Z,2.88
2023-06-12T20:53:53.947Z,3.13
2023-06-12T20:56:20.722Z,3.10
2023-06-12T20:58:47.596Z,3.28
2023-06-12T21:01:14.414Z,3.15
2023-06-12T21:03:41.247Z,3.60
2023-06-12T21:06:08.089Z,3.47
2023-06-12T21:08:37.589Z,3.17
2023-06-12T21:11:05.254Z,3.08
2023-06-12T21:13:32.038Z,3.13
2023-06-12T21:15:58.826Z,3.22
2023-06-12T21:18:25.843Z,3.10
2023-06-12T21:20:53.554Z,3.60
2023-06-12T21:23:20.691Z,3.83
2023-06-12T21:25:47.508Z,3.60
2023-06-12T21:28:14.265Z,4.00
2023-06-12T21:30:41.195Z,3.65
2023-06-12T21:33:08.062Z,3.40
2023-06-12T21:35:34.879Z,3.65
2023-06-12T21:38:01.645Z,3.15
2023-06-12T21:40:28.408Z,3.85
2023-06-12T21:42:55.148Z,3.40
2023-06-12T21:45:21.995Z,3.63
2023-06-12T21:47:48.783Z,3.50
2023-06-12T21:50:16.317Z,3.05
2023-06-12T21:52:43.699Z,3.45
2023-06-12T21:55:10.669Z,3.58
2023-06-12T21:57:37.555Z,3.05
2023-06-12T22:00:06.296Z,3.70
2023-06-12T22:02:40.705Z,4.10
2023-06-12T22:05:08.864Z,4.40
2023-06-12T22:07:36.944Z,3.30
2023-06-12T22:10:04.976Z,3.10
2023-06-12T22:12:31.803Z,3.38
2023-06-12T22:14:58.618Z,3.97
2023-06-12T22:17:25.513Z,3.53
2023-06-12T22:19:52.339Z,3.30
2023-06-12T22:22:19.064Z,3.35
2023-06-12T22:24:45.887Z,3.30
2023-06-12T22:27:12.768Z,3.47
2023-06-12T22:29:39.589Z,3.70
2023-06-12T22:32:06.944Z,3.08
2023-06-12T22:34:33.916Z,3.45
2023-06-12T22:37:04.302Z,3.08
2023-06-12T22:39:31.565Z,3.60
2023-06-12T22:41:58.276Z,3.20
2023-06-12T22:44:25.003Z,3.22
2023-06-12T22:46:51.799Z,3.45
2023-06-12T22:49:20.222Z,3.65
2023-06-12T22:51:49.786Z,3.53
2023-06-12T22:54:16.587Z,3.35
2023-06-12T22:56:43.572Z,3.35
2023-06-12T22:59:10.274Z,4.00
2023-06-12T23:01:37.118Z,3.40
2023-06-12T23:04:04.036Z,3.28
2023-06-12T23:06:32.841Z,3.13
2023-06-12T23:09:00.755Z,3.42
2023-06-12T23:11:28.684Z,3.00
2023-06-12T23:13:55.749Z,3.55
2023-06-12T23:16:24.918Z,3.60
2023-06-12T23:18:54.860Z,3.00
2023-06-12T23:21:25.128Z,3.28
2023-06-12T23:23:58.562Z,3.15
2023-06-12T23:26:29.679Z,2.80
2023-06-12T23:28:56.897Z,2.90
2023-06-12T23:31:24.716Z,3.17
2023-06-12T23:33:53.655Z,2.95
2023-06-12T23:36:22.702Z,2.83
2023-06-12T23:38:49.556Z,3.17
2023-06-12T23:41:18.238Z,3.05
2023-06-12T23:43:45.147Z,3.53
2023-06-12T23:46:16.433Z,2.90
2023-06-12T23:48:43.402Z,3.15
2023-06-12T23:51:10.185Z,3.00
2023-06-12T23:53:37.347Z,3.13
2023-06-12T23:56:04.248Z,3.25
2023-06-12T23:58:31.449Z,3.20
